createdAt,value
2018-07-28T00:00:12.996Z,6.83
2018-07-28T00:02:42.248Z,6.67
2018-07-28T00:05:11.380Z,8.30
2018-07-28T00:07:40.364Z,7.97
2018-07-28T00:10:11.937Z,6.83
2018-07-28T00:12:41.520Z,10.63
2018-07-28T00:15:11.866Z,6.83
2018-07-28T00:17:41.969Z,7.53
2018-07-28T00:20:12.239Z,6.80
2018-07-28T00:22:41.307Z,7.33
2018-07-28T00:25:11.625Z,8.20
2018-07-28T00:27:40.916Z,7.30
2018-07-28T00:30:11.781Z,8.73
2018-07-28T00:32:40.853Z,9.30
2018-07-28T00:35:10.266Z,9.10
2018-07-28T00:37:39.251Z,10.40
2018-07-28T00:40:08.764Z,7.83
2018-07-28T00:42:38.834Z,9.23
2018-07-28T00:45:08.272Z,6.90
2018-07-28T00:47:37.292Z,9.03
2018-07-28T00:50:08.153Z,7.17
2018-07-28T00:52:37.382Z,10.53
2018-07-28T00:55:07.682Z,7.03
2018-07-28T00:57:36.716Z,9.57
2018-07-28T01:00:07.031Z,8.53
2018-07-28T01:02:36.172Z,7.97
2018-07-28T01:05:05.835Z,6.80
2018-07-28T01:07:34.852Z,6.80
2018-07-28T01:10:04.196Z,7.70
2018-07-28T01:12:33.289Z,8.27
2018-07-28T01:15:02.501Z,6.87
2018-07-28T01:17:31.491Z,7.13
2018-07-28T01:20:00.589Z,8.20
2018-07-28T01:22:29.689Z,7.23
2018-07-28T01:24:58.678Z,8.83
2018-07-28T01:27:27.682Z,11.03
2018-07-28T01:29:56.911Z,7.17
2018-07-28T01:32:25.986Z,7.30
2018-07-28T01:34:54.931Z,8.17
2018-07-28T01:37:23.959Z,10.00
2018-07-28T01:39:53.523Z,7.83
2018-07-28T01:42:22.514Z,7.33
2018-07-28T01:44:51.500Z,6.90
2018-07-28T01:47:20.521Z,7.70
2018-07-28T01:49:49.511Z,12.33
2018-07-28T01:52:18.518Z,8.23
2018-07-28T01:54:47.493Z,9.70
2018-07-28T01:57:16.484Z,8.07
2018-07-28T01:59:46.006Z,9.40
2018-07-28T02:02:15.001Z,8.43
2018-07-28T02:04:44.008Z,9.03
2018-07-28T02:07:12.997Z,8.53
2018-07-28T02:09:41.995Z,9.43
2018-07-28T02:12:11.017Z,9.97
2018-07-28T02:14:40.432Z,10.10
2018-07-28T02:17:09.417Z,8.23
2018-07-28T02:19:38.410Z,9.77
2018-07-28T02:22:07.466Z,10.03
2018-07-28T02:24:36.457Z,10.93
2018-07-28T02:27:05.613Z,9.33
2018-07-28T02:29:34.680Z,9.87
2018-07-28T02:32:03.687Z,8.53
2018-07-28T02:34:32.841Z,10.70
2018-07-28T02:37:01.951Z,10.90
2018-07-28T02:39:31.043Z,8.67
2018-07-28T02:42:00.152Z,9.00
2018-07-28T02:44:30.191Z,9.33
2018-07-28T02:47:00.194Z,8.63
2018-07-28T02:49:29.247Z,10.03
2018-07-28T02:51:58.216Z,8.60
2018-07-28T02:54:27.296Z,12.33
2018-07-28T02:56:57.733Z,11.67
2018-07-28T02:59:26.747Z,10.10
2018-07-28T03:01:55.731Z,10.73
2018-07-28T03:04:24.974Z,10.33
2018-07-28T03:06:53.971Z,14.23
2018-07-28T03:09:22.963Z,14.70
2018-07-28T03:11:51.926Z,12.20
2018-07-28T03:14:20.995Z,11.30
2018-07-28T03:16:49.978Z,9.67
2018-07-28T03:19:19.069Z,13.20
2018-07-28T03:21:48.978Z,11.80
2018-07-28T03:24:18.077Z,10.27
2018-07-28T03:26:47.105Z,10.17
2018-07-28T03:29:16.055Z,9.70
2018-07-28T03:31:45.120Z,10.23
2018-07-28T03:34:14.157Z,12.20
2018-07-28T03:36:43.803Z,11.93
2018-07-28T03:39:12.869Z,14.23
2018-07-28T03:41:42.051Z,10.93
2018-07-28T03:44:11.098Z,10.73
2018-07-28T03:46:40.100Z,12.40
2018-07-28T03:49:09.795Z,10.70
2018-07-28T03:51:39.317Z,11.57
2018-07-28T03:54:08.371Z,12.63
2018-07-28T03:56:37.650Z,13.57
2018-07-28T03:59:07.329Z,12.40
2018-07-28T04:01:36.425Z,13.30
2018-07-28T04:04:06.022Z,11.03
2018-07-28T04:06:34.976Z,12.53
2018-07-28T04:09:06.109Z,12.73
2018-07-28T04:11:35.331Z,10.87
2018-07-28T04:14:04.379Z,12.80
2018-07-28T04:16:33.346Z,13.33
2018-07-28T04:19:02.374Z,12.30
2018-07-28T04:21:31.772Z,12.13
2018-07-28T04:24:00.961Z,11.60
2018-07-28T04:26:29.959Z,12.33
2018-07-28T04:28:58.947Z,13.30
2018-07-28T04:31:27.996Z,14.20
2018-07-28T04:33:57.083Z,13.53
2018-07-28T04:36:26.090Z,13.60
2018-07-28T04:38:55.132Z,12.10
2018-07-28T04:41:24.190Z,14.63
2018-07-28T04:43:53.207Z,13.07
2018-07-28T04:46:22.459Z,13.20
2018-07-28T04:48:51.433Z,13.50
2018-07-28T04:51:20.565Z,12.53
2018-07-28T04:53:49.615Z,13.30
2018-07-28T04:56:20.476Z,14.00
2018-07-28T04:58:49.433Z,17.13
2018-07-28T05:01:18.490Z,14.93
2018-07-28T05:03:47.670Z,13.90
2018-07-28T05:06:16.685Z,13.27
2018-07-28T05:08:45.706Z,14.60
2018-07-28T05:11:14.755Z,14.27
2018-07-28T05:13:43.791Z,14.83
2018-07-28T05:16:12.851Z,14.40
2018-07-28T05:18:42.524Z,14.53
2018-07-28T05:21:11.553Z,17.97
2018-07-28T05:23:40.347Z,14.90
2018-07-28T05:26:09.234Z,14.63
2018-07-28T05:28:38.290Z,14.27
2018-07-28T05:31:07.308Z,15.30
2018-07-28T05:33:36.579Z,15.70
2018-07-28T05:36:05.635Z,14.93
2018-07-28T05:38:34.596Z,13.77
2018-07-28T05:41:03.671Z,15.33
2018-07-28T05:43:32.687Z,13.97
2018-07-28T05:46:01.677Z,13.93
2018-07-28T05:48:30.724Z,13.57
2018-07-28T05:50:59.715Z,13.67
2018-07-28T05:53:28.744Z,13.10
2018-07-28T05:55:57.743Z,14.37
2018-07-28T05:58:26.862Z,15.33
2018-07-28T06:00:55.918Z,15.70
2018-07-28T06:03:24.583Z,15.50
2018-07-28T06:05:53.567Z,17.87
2018-07-28T06:08:22.557Z,18.93
2018-07-28T06:10:51.644Z,16.27
2018-07-28T06:13:20.579Z,16.90
2018-07-28T06:15:49.597Z,16.73
2018-07-28T06:18:18.636Z,17.93
2018-07-28T06:20:47.812Z,16.30
2018-07-28T06:23:16.890Z,14.40
2018-07-28T06:25:45.862Z,14.00
2018-07-28T06:28:14.878Z,13.53
2018-07-28T06:30:43.871Z,12.07
2018-07-28T06:33:12.896Z,11.80
2018-07-28T06:35:42.097Z,10.70
2018-07-28T06:38:11.159Z,10.30
2018-07-28T06:40:40.298Z,9.77
2018-07-28T06:43:10.000Z,8.47
2018-07-28T06:45:39.086Z,8.83
2018-07-28T06:48:07.826Z,12.00
2018-07-28T06:50:36.760Z,10.20
2018-07-28T06:53:06.098Z,7.57
2018-07-28T06:55:35.301Z,7.67
2018-07-28T06:58:04.695Z,7.43
2018-07-28T07:00:33.921Z,7.47
2018-07-28T07:03:03.784Z,7.67
2018-07-28T07:05:32.841Z,7.77
2018-07-28T07:08:01.979Z,6.93
2018-07-28T07:10:31.492Z,9.17
2018-07-28T07:13:00.666Z,6.60
2018-07-28T07:15:29.643Z,8.87
2018-07-28T07:17:58.768Z,6.28
2018-07-28T07:20:27.925Z,6.33
2018-07-28T07:22:57.769Z,6.70
2018-07-28T07:25:26.815Z,6.50
2018-07-28T07:27:55.840Z,9.03
2018-07-28T07:30:24.839Z,6.17
2018-07-28T07:32:53.946Z,6.35
2018-07-28T07:35:22.966Z,6.70
2018-07-28T07:37:52.240Z,5.85
2018-07-28T07:40:21.212Z,5.42
2018-07-28T07:42:50.315Z,6.10
2018-07-28T07:45:19.069Z,5.27
2018-07-28T07:47:48.247Z,4.90
2018-07-28T07:50:17.280Z,5.50
2018-07-28T07:52:46.276Z,5.37
2018-07-28T07:55:15.218Z,4.97
2018-07-28T07:57:44.358Z,6.00
2018-07-28T08:00:13.415Z,6.72
2018-07-28T08:02:42.779Z,6.37
2018-07-28T08:05:11.844Z,4.83
2018-07-28T08:07:40.881Z,4.75
2018-07-28T08:10:11.016Z,6.08
2018-07-28T08:12:40.137Z,4.70
2018-07-28T08:15:09.457Z,4.20
2018-07-28T08:17:38.651Z,4.25
2018-07-28T08:20:07.872Z,4.70
2018-07-28T08:22:37.003Z,4.65
2018-07-28T08:25:06.373Z,4.85
2018-07-28T08:27:35.824Z,5.42
2018-07-28T08:30:06.300Z,4.80
2018-07-28T08:32:35.468Z,4.47
2018-07-28T08:35:06.425Z,5.10
2018-07-28T08:37:35.428Z,4.50
2018-07-28T08:40:05.127Z,4.95
2018-07-28T08:42:34.285Z,4.78
2018-07-28T08:45:03.369Z,5.28
2018-07-28T08:47:32.437Z,4.70
2018-07-28T08:50:01.609Z,5.67
2018-07-28T08:52:30.586Z,5.40
2018-07-28T08:54:59.644Z,4.55
2018-07-28T08:57:28.990Z,4.53
2018-07-28T08:59:58.321Z,4.17
2018-07-28T09:02:27.007Z,4.60
2018-07-28T09:04:55.920Z,4.47
2018-07-28T09:07:25.129Z,3.98
2018-07-28T09:09:54.786Z,4.10
2018-07-28T09:12:23.977Z,4.33
2018-07-28T09:14:53.103Z,4.30
2018-07-28T09:17:21.774Z,5.80
2018-07-28T09:19:51.395Z,3.85
2018-07-28T09:22:20.726Z,5.00
2018-07-28T09:24:49.816Z,4.45
2018-07-28T09:27:18.834Z,4.43
2018-07-28T09:29:47.889Z,8.08
2018-07-28T09:32:16.912Z,4.25
2018-07-28T09:34:45.773Z,3.77
2018-07-28T09:37:14.752Z,3.83
2018-07-28T09:39:43.771Z,4.10
2018-07-28T09:42:12.763Z,4.17
2018-07-28T09:44:41.817Z,4.40
2018-07-28T09:47:10.786Z,3.52
2018-07-28T09:49:40.045Z,3.33
2018-07-28T09:52:09.003Z,3.02
2018-07-28T09:54:38.231Z,4.72
2018-07-28T09:57:07.757Z,3.33
2018-07-28T09:59:36.983Z,4.22
2018-07-28T10:02:06.786Z,4.05
2018-07-28T10:04:35.828Z,3.75
2018-07-28T10:07:04.874Z,4.07
2018-07-28T10:09:33.955Z,3.95
2018-07-28T10:12:03.752Z,3.40
2018-07-28T10:14:33.239Z,3.05
2018-07-28T10:17:03.662Z,4.08
2018-07-28T10:19:32.767Z,5.28
2018-07-28T10:22:01.843Z,5.00
2018-07-28T10:24:30.895Z,3.87
2018-07-28T10:26:59.864Z,3.70
2018-07-28T10:29:28.937Z,3.35
2018-07-28T10:31:57.902Z,4.55
2018-07-28T10:34:27.053Z,3.27
2018-07-28T10:36:56.153Z,3.67
2018-07-28T10:39:25.305Z,3.80
2018-07-28T10:41:54.379Z,3.83
2018-07-28T10:44:23.426Z,3.55
2018-07-28T10:46:52.238Z,3.98
2018-07-28T10:49:21.245Z,3.65
2018-07-28T10:51:50.473Z,3.67
2018-07-28T10:54:19.622Z,4.90
2018-07-28T10:56:48.445Z,3.90
2018-07-28T10:59:17.393Z,4.20
2018-07-28T11:01:46.740Z,5.53
2018-07-28T11:04:15.928Z,5.47
2018-07-28T11:06:45.036Z,3.30
2018-07-28T11:09:14.347Z,4.12
2018-07-28T11:11:43.355Z,5.20
2018-07-28T11:14:12.366Z,4.33
2018-07-28T11:16:41.408Z,3.62
2018-07-28T11:19:10.462Z,3.52
2018-07-28T11:21:39.534Z,4.80
2018-07-28T11:24:08.548Z,5.03
2018-07-28T11:26:37.532Z,3.87
2018-07-28T11:29:06.576Z,4.00
2018-07-28T11:31:46.860Z,4.35
2018-07-28T11:34:27.152Z,4.72
2018-07-28T11:37:07.294Z,4.35
2018-07-28T11:39:47.798Z,5.87
2018-07-28T11:42:28.248Z,4.37
2018-07-28T11:45:10.138Z,4.42
2018-07-28T11:47:39.121Z,4.90
2018-07-28T11:50:08.099Z,4.15
2018-07-28T11:52:37.224Z,4.22
2018-07-28T11:55:06.316Z,5.72
2018-07-28T11:57:36.274Z,4.25
2018-07-28T12:00:06.657Z,4.17
2018-07-28T12:02:35.651Z,5.15
2018-07-28T12:05:05.475Z,6.90
2018-07-28T12:07:34.653Z,4.53
2018-07-28T12:10:04.023Z,4.83
2018-07-28T12:12:33.011Z,4.80
2018-07-28T12:15:02.017Z,4.60
2018-07-28T12:17:31.110Z,4.53
2018-07-28T12:20:00.269Z,6.00
2018-07-28T12:22:29.308Z,6.30
2018-07-28T12:24:58.577Z,4.92
2018-07-28T12:27:28.386Z,4.53
2018-07-28T12:29:59.341Z,5.37
2018-07-28T12:32:28.389Z,6.30
2018-07-28T12:34:57.602Z,6.72
2018-07-28T12:37:26.528Z,5.60
2018-07-28T12:39:55.663Z,4.58
2018-07-28T12:42:25.316Z,5.08
2018-07-28T12:44:54.392Z,4.28
2018-07-28T12:47:23.415Z,5.72
2018-07-28T12:49:52.413Z,6.95
2018-07-28T12:52:22.003Z,5.05
2018-07-28T12:54:51.228Z,4.83
2018-07-28T12:57:20.293Z,5.97
2018-07-28T12:59:49.517Z,4.55
2018-07-28T13:02:18.632Z,3.60
2018-07-28T13:04:47.755Z,5.80
2018-07-28T13:07:16.780Z,4.30
2018-07-28T13:09:45.945Z,5.12
2018-07-28T13:12:14.997Z,4.17
2018-07-28T13:14:44.081Z,3.67
2018-07-28T13:17:13.293Z,3.67
2018-07-28T13:19:42.404Z,4.35
2018-07-28T13:22:11.478Z,4.05
2018-07-28T13:24:40.519Z,3.90
2018-07-28T13:27:09.723Z,3.70
2018-07-28T13:29:38.785Z,3.05
2018-07-28T13:32:07.945Z,3.40
2018-07-28T13:34:36.987Z,4.87
2018-07-28T13:37:06.422Z,7.00
2018-07-28T13:39:35.526Z,4.67
2018-07-28T13:42:04.570Z,4.37
2018-07-28T13:44:33.636Z,3.95
2018-07-28T13:47:02.845Z,4.47
2018-07-28T13:49:31.805Z,6.55
2018-07-28T13:52:00.933Z,3.83
2018-07-28T13:54:29.998Z,3.90
2018-07-28T13:56:59.194Z,3.90
2018-07-28T13:59:28.339Z,16.63
2018-07-28T14:01:57.600Z,26.23
2018-07-28T14:04:26.631Z,20.77
2018-07-28T14:06:55.724Z,16.03
2018-07-28T14:09:24.815Z,13.97
2018-07-28T14:11:56.880Z,13.03
2018-07-28T14:14:26.055Z,15.03
2018-07-28T14:16:55.135Z,26.10
2018-07-28T14:19:23.818Z,15.13
2018-07-28T14:21:52.854Z,13.13
2018-07-28T14:24:22.046Z,10.77
2018-07-28T14:26:51.042Z,8.57
2018-07-28T14:29:20.110Z,8.53
2018-07-28T14:31:49.209Z,7.77
2018-07-28T14:34:17.904Z,11.73
2018-07-28T14:36:46.780Z,7.43
2018-07-28T14:39:15.776Z,11.27
2018-07-28T14:44:04.427Z,7.47
2018-07-28T14:46:33.555Z,5.97
2018-07-28T14:49:02.817Z,8.00
2018-07-28T14:51:31.928Z,7.73
2018-07-28T14:54:01.148Z,10.20
2018-07-28T14:56:30.113Z,9.20
2018-07-28T14:58:59.948Z,17.73
2018-07-28T15:01:29.173Z,11.53
2018-07-28T15:03:58.195Z,12.40
2018-07-28T15:06:27.352Z,14.47
2018-07-28T15:08:56.655Z,13.37
2018-07-28T15:11:26.027Z,14.90
2018-07-28T15:13:55.047Z,13.20
2018-07-28T15:16:24.250Z,14.13
2018-07-28T15:18:53.272Z,15.60
2018-07-28T15:21:22.374Z,16.67
2018-07-28T15:23:51.619Z,14.40
2018-07-28T15:26:20.623Z,15.13
2018-07-28T15:28:51.349Z,17.33
2018-07-28T15:31:21.436Z,19.93
2018-07-28T15:33:50.462Z,17.50
2018-07-28T15:36:20.456Z,19.23
2018-07-28T15:38:49.510Z,19.27
2018-07-28T15:41:18.769Z,22.50
2018-07-28T15:43:48.879Z,20.03
2018-07-28T15:46:17.964Z,20.07
2018-07-28T15:48:46.991Z,17.93
2018-07-28T15:51:16.067Z,18.00
2018-07-28T15:53:45.177Z,16.10
2018-07-28T15:56:14.297Z,17.97
2018-07-28T15:58:43.446Z,19.33
2018-07-28T16:01:12.554Z,18.40
2018-07-28T16:03:41.742Z,19.17
2018-07-28T16:06:10.846Z,17.17
2018-07-28T16:08:40.045Z,19.60
2018-07-28T16:11:09.347Z,18.00
2018-07-28T16:13:38.663Z,17.80
2018-07-28T16:16:08.085Z,17.33
2018-07-28T16:18:40.827Z,16.07
2018-07-28T16:21:10.699Z,17.80
2018-07-28T16:23:39.967Z,19.53
2018-07-28T16:26:09.006Z,18.87
2018-07-28T16:28:39.158Z,19.73
2018-07-28T16:31:07.914Z,17.67
2018-07-28T16:33:37.077Z,16.73
2018-07-28T16:36:06.221Z,17.07
2018-07-28T16:38:35.549Z,15.97
2018-07-28T16:41:04.783Z,18.03
2018-07-28T16:43:33.817Z,17.00
2018-07-28T16:46:03.805Z,21.57
2018-07-28T16:48:32.904Z,17.63
2018-07-28T16:51:01.933Z,17.53
2018-07-28T16:53:30.941Z,17.37
2018-07-28T16:56:00.111Z,17.10
2018-07-28T16:58:29.151Z,17.47
2018-07-28T17:00:58.298Z,15.67
2018-07-28T17:03:27.716Z,14.87
2018-07-28T17:05:57.414Z,17.80
2018-07-28T17:08:26.472Z,16.73
2018-07-28T17:10:55.716Z,16.70
2018-07-28T17:13:24.868Z,18.57
2018-07-28T17:15:54.023Z,16.93
2018-07-28T17:18:23.732Z,16.10
2018-07-28T17:20:53.048Z,15.87
2018-07-28T17:23:22.267Z,15.60
2018-07-28T17:25:51.337Z,16.47
2018-07-28T17:28:20.458Z,14.93
2018-07-28T17:30:49.498Z,15.60
2018-07-28T17:33:18.530Z,15.33
2018-07-28T17:35:47.538Z,15.67
2018-07-28T17:38:16.650Z,16.30
2018-07-28T17:40:45.735Z,15.07
2018-07-28T17:43:14.786Z,14.90
2018-07-28T17:45:43.827Z,15.33
2018-07-28T17:48:13.007Z,14.90
2018-07-28T17:50:42.224Z,17.00
2018-07-28T17:53:11.325Z,16.47
2018-07-28T17:55:40.342Z,16.20
2018-07-28T17:58:09.503Z,15.80
2018-07-28T18:00:38.534Z,16.50
2018-07-28T18:03:07.723Z,15.40
2018-07-28T18:05:36.762Z,16.47
2018-07-28T18:08:06.466Z,15.80
2018-07-28T18:10:35.476Z,16.10
2018-07-28T18:13:04.732Z,17.73
2018-07-28T18:15:33.943Z,19.37
2018-07-28T18:18:02.966Z,19.93
2018-07-28T18:20:32.076Z,21.03
2018-07-28T18:23:01.154Z,18.20
2018-07-28T18:25:30.158Z,17.53
2018-07-28T18:27:59.240Z,21.50
2018-07-28T18:30:28.327Z,18.23
2018-07-28T18:32:57.335Z,17.23
2018-07-28T18:35:26.432Z,16.97
2018-07-28T18:37:55.548Z,17.60
2018-07-28T18:40:24.728Z,17.73
2018-07-28T18:42:53.780Z,17.63
2018-07-28T18:45:22.821Z,17.60
2018-07-28T18:47:51.920Z,17.87
2018-07-28T18:50:21.020Z,18.60
2018-07-28T18:52:50.035Z,16.63
2018-07-28T18:55:19.096Z,18.47
2018-07-28T18:57:48.252Z,18.07
2018-07-28T19:00:17.373Z,18.23
2018-07-28T19:02:46.520Z,17.87
2018-07-28T19:05:15.598Z,19.37
2018-07-28T19:07:44.885Z,19.77
2018-07-28T19:10:14.126Z,18.07
2018-07-28T19:12:49.082Z,18.73
2018-07-28T19:15:18.253Z,16.70
2018-07-28T19:17:52.571Z,18.60
2018-07-28T19:20:21.621Z,16.93
2018-07-28T19:22:55.980Z,19.37
2018-07-28T19:25:25.652Z,18.90
2018-07-28T19:28:00.450Z,18.43
2018-07-28T19:30:29.638Z,19.27
2018-07-28T19:32:58.671Z,19.37
2018-07-28T19:35:33.563Z,20.17
2018-07-28T19:38:02.643Z,21.97
2018-07-28T19:40:31.435Z,21.13
2018-07-28T19:43:00.808Z,20.70
2018-07-28T19:45:30.161Z,21.33
2018-07-28T19:47:59.297Z,21.53
2018-07-28T19:50:29.049Z,21.47
2018-07-28T19:52:58.189Z,22.70
2018-07-28T19:55:27.184Z,21.33
2018-07-28T19:57:56.484Z,23.73
2018-07-28T20:00:25.579Z,23.07
2018-07-28T20:02:54.679Z,24.43
2018-07-28T20:05:24.832Z,25.80
2018-07-28T20:07:54.408Z,26.73
2018-07-28T20:10:23.550Z,26.57
2018-07-28T20:12:52.577Z,26.30
2018-07-28T20:15:21.658Z,25.83
2018-07-28T20:17:50.919Z,25.20
2018-07-28T20:20:20.014Z,25.27
2018-07-28T20:22:49.052Z,25.10
2018-07-28T20:25:18.067Z,24.03
2018-07-28T20:27:46.759Z,22.23
2018-07-28T20:30:15.693Z,22.30
2018-07-28T20:32:44.815Z,23.27
2018-07-28T20:35:13.994Z,23.10
2018-07-28T20:37:43.092Z,18.97
2018-07-28T20:40:12.185Z,21.23
2018-07-28T20:42:41.313Z,21.23
2018-07-28T20:45:10.390Z,20.20
2018-07-28T20:47:40.104Z,20.87
2018-07-28T20:50:09.121Z,19.77
2018-07-28T20:52:38.370Z,22.73
2018-07-28T20:55:07.405Z,23.17
2018-07-28T20:57:36.423Z,23.70
2018-07-28T21:00:05.521Z,23.60
2018-07-28T21:02:34.538Z,23.47
2018-07-28T21:05:04.140Z,24.37
2018-07-28T21:07:33.813Z,21.90
2018-07-28T21:10:03.097Z,21.47
2018-07-28T21:12:31.887Z,19.93
2018-07-28T21:15:00.998Z,18.53
2018-07-28T21:17:30.359Z,20.53
2018-07-28T21:19:59.448Z,21.30
2018-07-28T21:22:28.523Z,20.70
2018-07-28T21:24:57.826Z,20.03
2018-07-28T21:27:28.568Z,19.30
2018-07-28T21:29:57.707Z,16.50
2018-07-28T21:32:26.763Z,15.80
2018-07-28T21:34:55.872Z,14.77
2018-07-28T21:37:27.274Z,15.07
2018-07-28T21:39:56.062Z,16.60
2018-07-28T21:42:25.112Z,19.57
2018-07-28T21:44:54.817Z,19.60
2018-07-28T21:47:24.173Z,19.23
2018-07-28T21:49:53.189Z,17.73
2018-07-28T21:52:21.965Z,17.20
2018-07-28T21:54:51.112Z,20.83
2018-07-28T21:57:20.416Z,19.43
2018-07-28T21:59:49.625Z,20.10
2018-07-28T22:02:19.140Z,21.43
2018-07-28T22:04:48.322Z,26.30
2018-07-28T22:07:17.334Z,26.63
2018-07-28T22:09:47.963Z,22.17
2018-07-28T22:12:17.080Z,24.47
2018-07-28T22:14:46.372Z,21.10
2018-07-28T22:17:15.558Z,23.77
2018-07-28T22:19:44.658Z,25.27
2018-07-28T22:22:13.760Z,27.77
2018-07-28T22:24:43.585Z,23.87
2018-07-28T22:27:13.945Z,23.47
2018-07-28T22:29:43.002Z,24.00
2018-07-28T22:32:12.209Z,25.90
2018-07-28T22:34:41.322Z,23.57
2018-07-28T22:37:10.359Z,24.13
2018-07-28T22:39:39.184Z,24.60
2018-07-28T22:42:08.320Z,25.60
2018-07-28T22:44:37.390Z,27.60
2018-07-28T22:47:06.618Z,20.50
2018-07-28T22:49:35.694Z,22.00
2018-07-28T22:52:04.897Z,21.53
2018-07-28T22:54:34.105Z,22.17
2018-07-28T22:57:03.113Z,22.77
2018-07-28T22:59:32.192Z,20.43
2018-07-28T23:02:01.294Z,17.50
2018-07-28T23:04:30.570Z,21.40
2018-07-28T23:06:59.699Z,16.83
2018-07-28T23:09:28.661Z,16.17
2018-07-28T23:11:57.790Z,19.43
2018-07-28T23:14:26.800Z,17.70
2018-07-28T23:16:55.886Z,16.30
2018-07-28T23:19:24.879Z,14.93
2018-07-28T23:21:53.984Z,14.93
2018-07-28T23:24:23.020Z,12.55
2018-07-28T23:26:52.226Z,12.80
2018-07-28T23:29:21.243Z,14.93
2018-07-28T23:31:50.080Z,17.27
2018-07-28T23:34:19.090Z,18.33
2018-07-28T23:36:48.097Z,15.20
2018-07-28T23:39:17.386Z,18.50
2018-07-28T23:41:47.298Z,16.97
2018-07-28T23:44:16.311Z,16.63
2018-07-28T23:46:45.488Z,18.10
2018-07-28T23:49:14.692Z,18.83
2018-07-28T23:51:44.612Z,17.57
2018-07-28T23:54:13.732Z,18.27
2018-07-28T23:56:42.913Z,19.67
2018-07-28T23:59:11.920Z,25.70
